createdAt,value
2023-01-13T00:01:17.461Z,57.42
2023-01-13T00:03:43.756Z,57.66
2023-01-13T00:06:10.044Z,57.42
2023-01-13T00:08:36.348Z,56.88
2023-01-13T00:11:02.643Z,56.62
2023-01-13T00:13:28.935Z,57.35
2023-01-13T00:15:55.324Z,56.65
2023-01-13T00:18:21.637Z,56.79
2023-01-13T00:20:47.923Z,57.36
2023-01-13T00:23:14.241Z,56.71
2023-01-13T00:25:40.523Z,57.30
2023-01-13T00:28:06.813Z,57.34
2023-01-13T00:30:33.123Z,57.33
2023-01-13T00:32:59.402Z,57.40
2023-01-13T00:35:25.682Z,58.63
2023-01-13T00:37:52.021Z,58.11
2023-01-13T00:40:18.378Z,58.63
2023-01-13T00:42:44.675Z,58.19
2023-01-13T00:45:10.981Z,58.48
2023-01-13T00:47:37.265Z,58.32
2023-01-13T00:50:03.562Z,58.75
2023-01-13T00:52:29.874Z,58.56
2023-01-13T00:54:56.178Z,58.79
2023-01-13T00:57:22.478Z,59.65
2023-01-13T00:59:49.635Z,58.84
2023-01-13T01:02:16.180Z,59.34
2023-01-13T01:04:42.521Z,59.39
2023-01-13T01:07:08.832Z,59.46
2023-01-13T01:09:35.115Z,59.34
2023-01-13T01:12:01.428Z,58.71
2023-01-13T01:14:27.736Z,58.21
2023-01-13T01:16:54.044Z,59.03
2023-01-13T01:19:20.335Z,58.30
2023-01-13T01:21:46.680Z,59.62
2023-01-13T01:24:12.984Z,60.23
2023-01-13T01:26:39.274Z,60.31
2023-01-13T01:29:05.594Z,61.07
2023-01-13T01:31:31.938Z,61.75
2023-01-13T01:33:58.257Z,61.43
2023-01-13T01:36:24.591Z,62.98
2023-01-13T01:38:50.897Z,62.95
2023-01-13T01:41:17.188Z,64.24
2023-01-13T01:43:43.501Z,65.13
2023-01-13T01:46:09.793Z,64.57
2023-01-13T01:48:36.082Z,65.19
2023-01-13T01:51:02.387Z,65.00
2023-01-13T01:53:28.676Z,65.35
2023-01-13T01:55:54.966Z,65.80
2023-01-13T01:58:21.284Z,65.58
2023-01-13T02:00:47.602Z,66.74
2023-01-13T02:03:13.898Z,67.75
2023-01-13T02:05:40.234Z,68.73
2023-01-13T02:08:06.521Z,68.40
2023-01-13T02:10:32.805Z,68.80
2023-01-13T02:12:59.109Z,68.63
2023-01-13T02:15:25.421Z,68.67
2023-01-13T02:17:51.704Z,69.69
2023-01-13T02:20:18.022Z,71.19
2023-01-13T02:22:44.292Z,71.21
2023-01-13T02:25:10.579Z,71.78
2023-01-13T02:27:37.013Z,71.44
2023-01-13T02:30:03.447Z,71.52
2023-01-13T02:32:29.732Z,71.07
2023-01-13T02:34:56.028Z,70.72
2023-01-13T02:37:22.312Z,72.00
2023-01-13T02:39:48.590Z,71.22
2023-01-13T02:42:14.900Z,70.73
2023-01-13T02:44:41.187Z,70.70
2023-01-13T02:47:07.468Z,71.62
2023-01-13T02:49:33.772Z,72.26
2023-01-13T02:52:00.061Z,73.82
2023-01-13T02:54:26.346Z,73.03
2023-01-13T02:56:52.652Z,72.73
2023-01-13T02:59:18.923Z,72.44
2023-01-13T03:01:45.275Z,71.74
2023-01-13T03:04:11.658Z,72.03
2023-01-13T03:06:38.014Z,71.06
2023-01-13T03:09:04.342Z,72.94
2023-01-13T03:11:30.654Z,72.45
2023-01-13T03:13:56.950Z,72.97
2023-01-13T03:16:23.282Z,72.76
2023-01-13T03:18:49.617Z,72.97
2023-01-13T03:21:15.901Z,73.63
2023-01-13T03:23:42.221Z,73.33
2023-01-13T03:26:08.537Z,73.16
2023-01-13T03:28:34.843Z,71.43
2023-01-13T03:31:01.146Z,71.44
2023-01-13T03:33:27.492Z,71.89
2023-01-13T03:35:53.779Z,72.36
2023-01-13T03:38:20.082Z,71.79
2023-01-13T03:40:46.397Z,71.02
2023-01-13T03:43:12.691Z,70.77
2023-01-13T03:45:39.020Z,71.26
2023-01-13T03:48:05.346Z,70.68
2023-01-13T03:50:31.651Z,70.90
2023-01-13T03:52:57.960Z,69.96
2023-01-13T03:55:24.259Z,72.26
2023-01-13T03:57:50.558Z,71.20
2023-01-13T04:00:16.857Z,70.59
2023-01-13T04:02:43.162Z,73.69
2023-01-13T04:05:09.460Z,74.10
2023-01-13T04:07:35.754Z,74.38
2023-01-13T04:10:02.247Z,74.77
2023-01-13T04:12:28.635Z,74.45
2023-01-13T04:14:54.932Z,75.14
2023-01-13T04:17:21.238Z,76.86
2023-01-13T04:19:47.543Z,78.09
2023-01-13T04:22:13.849Z,77.04
2023-01-13T04:24:40.154Z,77.60
2023-01-13T04:27:06.478Z,78.33
2023-01-13T04:29:32.767Z,77.51
2023-01-13T04:31:59.090Z,78.04
2023-01-13T04:34:27.538Z,77.89
2023-01-13T04:36:54.643Z,78.14
2023-01-13T04:39:20.997Z,79.70
2023-01-13T04:41:47.311Z,78.64
2023-01-13T04:44:13.598Z,78.06
2023-01-13T04:46:40.031Z,77.03
2023-01-13T04:49:06.365Z,77.33
2023-01-13T04:51:32.659Z,77.39
2023-01-13T04:53:58.982Z,77.58
2023-01-13T04:56:25.284Z,78.03
2023-01-13T04:58:51.584Z,77.90
2023-01-13T05:01:18.006Z,78.18
2023-01-13T05:03:44.327Z,78.54
2023-01-13T05:06:10.617Z,78.14
2023-01-13T05:08:36.955Z,79.77
2023-01-13T05:11:03.274Z,77.66
2023-01-13T05:13:29.554Z,79.30
2023-01-13T05:15:55.905Z,78.19
2023-01-13T05:18:22.253Z,78.09
2023-01-13T05:20:48.548Z,78.95
2023-01-13T05:23:14.873Z,78.60
2023-01-13T05:25:42.858Z,79.02
2023-01-13T05:28:10.456Z,79.16
2023-01-13T05:30:36.775Z,79.78
2023-01-13T05:33:03.082Z,83.60
2023-01-13T05:35:29.384Z,81.98
2023-01-13T05:37:55.718Z,80.40
2023-01-13T05:40:22.008Z,79.60
2023-01-13T05:42:51.165Z,80.38
2023-01-13T05:45:17.551Z,80.14
2023-01-13T05:47:43.844Z,79.98
2023-01-13T05:50:10.152Z,80.33
2023-01-13T05:52:36.476Z,79.88
2023-01-13T05:55:02.791Z,80.80
2023-01-13T05:57:29.094Z,80.37
2023-01-13T05:59:55.401Z,80.58
2023-01-13T06:02:21.706Z,80.71
2023-01-13T06:04:48.069Z,81.73
2023-01-13T06:07:14.414Z,81.62
2023-01-13T06:09:40.730Z,82.40
2023-01-13T06:12:07.024Z,82.63
2023-01-13T06:14:34.990Z,82.67
2023-01-13T06:17:02.779Z,82.69
2023-01-13T06:19:29.072Z,83.57
2023-01-13T06:21:55.381Z,82.48
2023-01-13T06:24:21.678Z,100.00
2023-01-13T06:26:47.974Z,100.00
2023-01-13T06:29:14.291Z,100.00
2023-01-13T06:31:40.654Z,100.00
2023-01-13T06:34:06.977Z,100.00
2023-01-13T06:36:33.313Z,100.00
2023-01-13T06:38:59.625Z,100.00
2023-01-13T06:41:25.935Z,100.00
2023-01-13T06:43:52.235Z,100.00
2023-01-13T06:46:18.558Z,100.00
2023-01-13T06:48:44.868Z,100.00
2023-01-13T06:51:11.215Z,100.00
2023-01-13T06:53:37.512Z,89.94
2023-01-13T06:56:03.810Z,88.40
2023-01-13T06:58:30.126Z,87.21
2023-01-13T07:00:56.471Z,86.49
2023-01-13T07:03:22.814Z,86.24
2023-01-13T07:05:49.165Z,86.16
2023-01-13T07:08:15.468Z,86.04
2023-01-13T07:10:41.763Z,87.27
2023-01-13T07:13:08.149Z,86.54
2023-01-13T07:15:34.453Z,86.56
2023-01-13T07:18:00.738Z,85.73
2023-01-13T07:20:27.044Z,86.92
2023-01-13T07:22:53.343Z,85.88
2023-01-13T07:25:19.652Z,87.26
2023-01-13T07:27:45.977Z,87.09
2023-01-13T07:30:12.277Z,85.92
2023-01-13T07:32:38.572Z,86.14
2023-01-13T07:35:04.907Z,85.99
2023-01-13T07:37:31.202Z,84.12
2023-01-13T07:39:57.489Z,84.30
2023-01-13T07:42:23.795Z,83.70
2023-01-13T07:44:50.098Z,83.30
2023-01-13T07:47:17.534Z,82.91
2023-01-13T07:49:43.851Z,82.31
2023-01-13T07:52:10.147Z,84.11
2023-01-13T07:54:40.870Z,83.47
2023-01-13T07:57:07.525Z,83.87
2023-01-13T07:59:33.828Z,84.61
2023-01-13T08:02:00.383Z,83.62
2023-01-13T08:04:32.951Z,83.41
2023-01-13T08:06:59.240Z,83.65
2023-01-13T08:09:25.657Z,82.38
2023-01-13T08:11:51.978Z,82.91
2023-01-13T08:14:18.285Z,82.72
2023-01-13T08:16:44.861Z,83.92
2023-01-13T08:19:11.273Z,87.21
2023-01-13T08:21:37.564Z,87.31
2023-01-13T08:24:03.842Z,86.15
2023-01-13T08:26:30.172Z,85.86
2023-01-13T08:28:56.464Z,86.29
2023-01-13T08:31:22.821Z,87.06
2023-01-13T08:33:49.153Z,87.38
2023-01-13T08:36:15.450Z,85.86
2023-01-13T08:38:41.743Z,86.38
2023-01-13T08:41:08.081Z,86.62
2023-01-13T08:43:34.472Z,88.04
2023-01-13T08:46:00.870Z,88.05
2023-01-13T08:48:28.556Z,87.20
2023-01-13T08:50:56.022Z,86.94
2023-01-13T08:53:22.353Z,87.61
2023-01-13T08:55:48.672Z,97.11
2023-01-13T08:58:16.384Z,86.91
2023-01-13T09:00:42.776Z,86.57
2023-01-13T09:03:09.148Z,86.77
2023-01-13T09:05:35.464Z,87.40
2023-01-13T09:08:01.843Z,87.27
2023-01-13T09:10:28.164Z,86.49
2023-01-13T09:12:54.475Z,87.45
2023-01-13T09:15:20.966Z,86.90
2023-01-13T09:17:47.361Z,86.71
2023-01-13T09:20:13.660Z,87.86
2023-01-13T09:22:39.995Z,87.46
2023-01-13T09:25:06.315Z,87.29
2023-01-13T09:27:32.620Z,86.27
2023-01-13T09:29:58.920Z,86.54
2023-01-13T09:32:25.375Z,86.65
2023-01-13T09:34:51.735Z,86.51
2023-01-13T09:37:18.235Z,85.27
2023-01-13T09:39:44.544Z,87.83
2023-01-13T09:42:10.840Z,87.00
2023-01-13T09:44:37.188Z,87.17
2023-01-13T09:47:03.577Z,86.12
2023-01-13T09:49:29.870Z,85.62
2023-01-13T09:51:56.171Z,86.26
2023-01-13T09:54:22.485Z,86.66
2023-01-13T09:56:48.792Z,87.46
2023-01-13T09:59:15.089Z,85.94
2023-01-13T10:01:41.388Z,86.72
2023-01-13T10:04:09.248Z,87.47
2023-01-13T10:06:35.590Z,87.07
2023-01-13T10:09:01.967Z,86.76
2023-01-13T10:11:28.282Z,86.47
2023-01-13T10:13:54.600Z,85.87
2023-01-13T10:16:20.962Z,85.02
2023-01-13T10:18:47.267Z,84.87
2023-01-13T10:21:13.558Z,85.24
2023-01-13T10:23:39.882Z,84.04
2023-01-13T10:26:06.278Z,83.06
2023-01-13T10:28:32.600Z,83.53
2023-01-13T10:30:58.951Z,83.93
2023-01-13T10:33:27.727Z,82.83
2023-01-13T10:35:55.011Z,83.87
2023-01-13T10:38:21.363Z,82.78
2023-01-13T10:40:47.656Z,82.58
2023-01-13T10:43:13.970Z,83.59
2023-01-13T10:45:40.376Z,82.44
2023-01-13T10:48:06.710Z,82.99
2023-01-13T10:50:33.011Z,84.80
2023-01-13T10:52:59.341Z,82.49
2023-01-13T10:55:25.642Z,82.35
2023-01-13T10:57:51.943Z,81.52
2023-01-13T11:00:18.307Z,82.47
2023-01-13T11:02:44.614Z,80.97
2023-01-13T11:05:11.075Z,83.99
2023-01-13T11:07:37.419Z,82.95
2023-01-13T11:10:03.727Z,83.19
2023-01-13T11:12:30.033Z,83.43
2023-01-13T11:14:58.703Z,83.35
2023-01-13T11:17:25.011Z,83.93
2023-01-13T11:19:51.308Z,84.33
2023-01-13T11:22:17.637Z,84.68
2023-01-13T11:24:43.943Z,86.30
2023-01-13T11:27:10.243Z,84.79
2023-01-13T11:29:36.564Z,85.00
2023-01-13T11:32:02.854Z,84.35
2023-01-13T11:34:29.168Z,84.86
2023-01-13T11:36:55.519Z,84.11
2023-01-13T11:39:21.830Z,84.53
2023-01-13T11:41:48.121Z,84.40
2023-01-13T11:44:14.448Z,85.71
2023-01-13T11:46:40.831Z,85.23
2023-01-13T11:49:07.166Z,86.06
2023-01-13T11:51:33.473Z,84.10
2023-01-13T11:53:59.796Z,83.80
2023-01-13T11:56:26.100Z,83.34
2023-01-13T11:58:52.433Z,83.22
2023-01-13T12:01:20.015Z,81.77
2023-01-13T12:03:47.879Z,81.18
2023-01-13T12:06:14.191Z,78.08
2023-01-13T12:08:40.484Z,75.76
2023-01-13T12:11:06.940Z,77.86
2023-01-13T12:13:33.287Z,74.75
2023-01-13T12:15:59.567Z,76.95
2023-01-13T12:18:25.881Z,76.37
2023-01-13T12:20:52.243Z,77.74
2023-01-13T12:23:18.534Z,77.89
2023-01-13T12:25:44.813Z,75.49
2023-01-13T12:28:11.109Z,74.62
2023-01-13T12:30:37.414Z,75.09
2023-01-13T12:33:03.706Z,73.35
2023-01-13T12:35:30.027Z,70.86
2023-01-13T12:37:56.335Z,71.26
2023-01-13T12:40:22.651Z,71.70
2023-01-13T12:42:48.974Z,70.39
2023-01-13T12:45:16.876Z,70.72
2023-01-13T12:47:44.722Z,70.39
2023-01-13T12:50:11.046Z,71.10
2023-01-13T12:52:37.339Z,73.85
2023-01-13T12:55:03.653Z,74.79
2023-01-13T12:57:29.968Z,74.21
2023-01-13T12:59:56.262Z,73.88
2023-01-13T13:02:22.645Z,73.74
2023-01-13T13:04:48.994Z,71.81
2023-01-13T13:07:15.286Z,71.34
2023-01-13T13:09:41.577Z,71.53
2023-01-13T13:12:07.893Z,71.56
2023-01-13T13:14:34.254Z,71.45
2023-01-13T13:17:00.725Z,71.04
2023-01-13T13:19:27.109Z,71.84
2023-01-13T13:21:53.412Z,72.09
2023-01-13T13:24:19.706Z,69.65
2023-01-13T13:26:46.078Z,69.96
2023-01-13T13:29:12.363Z,69.89
2023-01-13T13:31:38.675Z,69.36
2023-01-13T13:34:04.980Z,69.40
2023-01-13T13:36:31.266Z,70.23
2023-01-13T13:38:57.566Z,70.18
2023-01-13T13:41:23.887Z,68.66
2023-01-13T13:43:50.202Z,70.06
2023-01-13T13:46:16.542Z,69.24
2023-01-13T13:48:42.937Z,70.78
2023-01-13T13:51:09.220Z,71.38
2023-01-13T13:53:35.504Z,70.05
2023-01-13T13:56:01.831Z,70.83
2023-01-13T13:58:28.148Z,70.58
2023-01-13T14:00:54.487Z,71.82
2023-01-13T14:03:20.879Z,72.31
2023-01-13T14:05:47.196Z,70.66
2023-01-13T14:08:13.484Z,70.28
2023-01-13T14:10:39.861Z,69.99
2023-01-13T14:13:06.199Z,69.11
2023-01-13T14:15:32.623Z,68.73
2023-01-13T14:17:59.011Z,69.20
2023-01-13T14:20:25.299Z,70.36
2023-01-13T14:22:51.619Z,70.25
2023-01-13T14:25:17.926Z,68.73
2023-01-13T14:27:44.219Z,69.00
2023-01-13T14:30:10.498Z,71.44
2023-01-13T14:32:36.854Z,74.30
2023-01-13T14:35:03.187Z,73.71
2023-01-13T14:37:29.482Z,74.15
2023-01-13T14:39:55.802Z,72.10
2023-01-13T14:42:22.166Z,72.36
2023-01-13T14:44:48.474Z,70.53
2023-01-13T14:47:14.790Z,72.15
2023-01-13T14:49:41.067Z,70.94
2023-01-13T14:52:07.353Z,72.54
2023-01-13T14:54:33.662Z,75.19
2023-01-13T14:56:59.962Z,75.15
2023-01-13T14:59:26.256Z,74.73
2023-01-13T15:01:52.598Z,76.04
2023-01-13T15:04:18.913Z,74.73
2023-01-13T15:06:45.210Z,74.02
2023-01-13T15:09:11.531Z,75.08
2023-01-13T15:11:37.826Z,74.32
2023-01-13T15:14:04.102Z,75.59
2023-01-13T15:16:30.442Z,72.63
2023-01-13T15:18:56.789Z,72.53
2023-01-13T15:21:23.180Z,73.88
2023-01-13T15:23:49.585Z,73.40
2023-01-13T15:26:15.873Z,73.16
2023-01-13T15:28:42.162Z,73.87
2023-01-13T15:31:08.560Z,73.86
2023-01-13T15:33:36.274Z,73.14
2023-01-13T15:36:02.580Z,73.00
2023-01-13T15:38:28.937Z,73.61
2023-01-13T15:40:55.237Z,71.69
2023-01-13T15:43:21.529Z,72.80
2023-01-13T15:45:47.866Z,73.18
2023-01-13T15:48:14.155Z,74.68
2023-01-13T15:50:40.449Z,74.71
2023-01-13T15:53:06.997Z,72.89
2023-01-13T15:55:33.288Z,71.65
2023-01-13T15:57:59.585Z,71.42
2023-01-13T16:00:25.940Z,71.78
2023-01-13T16:02:52.320Z,71.47
2023-01-13T16:05:18.747Z,70.13
2023-01-13T16:07:45.057Z,69.83
2023-01-13T16:10:11.360Z,68.85
2023-01-13T16:12:37.663Z,69.61
2023-01-13T16:15:03.961Z,70.22
2023-01-13T16:17:30.242Z,70.37
2023-01-13T16:19:56.537Z,70.36
2023-01-13T16:22:22.862Z,69.64
2023-01-13T16:24:49.136Z,68.30
2023-01-13T16:27:17.775Z,70.09
2023-01-13T16:29:44.094Z,68.07
2023-01-13T16:32:10.405Z,67.99
2023-01-13T16:34:36.713Z,68.18
2023-01-13T16:37:03.054Z,68.85
2023-01-13T16:39:29.362Z,67.01
2023-01-13T16:41:55.661Z,66.19
2023-01-13T16:44:22.016Z,65.21
2023-01-13T16:46:48.326Z,66.43
2023-01-13T16:49:14.628Z,67.42
2023-01-13T16:51:40.927Z,67.39
2023-01-13T16:54:07.216Z,66.49
2023-01-13T16:56:33.510Z,66.27
2023-01-13T16:58:59.825Z,65.71
2023-01-13T17:01:26.338Z,67.72
2023-01-13T17:03:52.770Z,68.71
2023-01-13T17:06:19.223Z,69.81
2023-01-13T17:08:45.510Z,68.13
2023-01-13T17:11:11.808Z,68.68
2023-01-13T17:13:38.126Z,67.60
2023-01-13T17:16:04.429Z,68.27
2023-01-13T17:18:30.735Z,67.61
2023-01-13T17:20:57.048Z,68.01
2023-01-13T17:23:23.339Z,67.59
2023-01-13T17:25:49.625Z,67.81
2023-01-13T17:28:15.949Z,67.65
2023-01-13T17:30:42.243Z,68.25
2023-01-13T17:33:08.571Z,68.44
2023-01-13T17:35:34.975Z,67.35
2023-01-13T17:38:01.266Z,67.58
2023-01-13T17:40:27.579Z,66.37
2023-01-13T17:42:53.893Z,67.44
2023-01-13T17:45:20.196Z,66.43
2023-01-13T17:47:47.487Z,67.05
2023-01-13T17:50:14.038Z,67.91
2023-01-13T17:52:40.330Z,68.01
2023-01-13T17:55:06.622Z,67.68
2023-01-13T17:57:32.937Z,66.35
2023-01-13T17:59:59.249Z,66.25
2023-01-13T18:02:25.599Z,66.51
2023-01-13T18:04:51.960Z,67.32
2023-01-13T18:07:18.262Z,66.40
2023-01-13T18:09:44.554Z,65.94
2023-01-13T18:12:10.883Z,66.03
2023-01-13T18:14:37.204Z,66.73
2023-01-13T18:17:03.525Z,66.69
2023-01-13T18:19:29.849Z,69.57
2023-01-13T18:21:56.150Z,70.60
2023-01-13T18:24:22.441Z,70.84
2023-01-13T18:26:48.749Z,72.98
2023-01-13T18:29:15.041Z,70.76
2023-01-13T18:31:41.338Z,70.65
2023-01-13T18:34:07.712Z,70.93
2023-01-13T18:36:34.010Z,68.54
2023-01-13T18:39:00.311Z,69.41
2023-01-13T18:41:26.632Z,70.05
2023-01-13T18:43:52.936Z,68.80
2023-01-13T18:46:19.292Z,70.30
2023-01-13T18:48:45.651Z,69.90
2023-01-13T18:51:11.945Z,69.92
2023-01-13T18:53:38.234Z,70.38
2023-01-13T18:56:04.573Z,71.48
2023-01-13T18:58:30.870Z,70.39
2023-01-13T19:00:57.211Z,70.21
2023-01-13T19:03:29.918Z,69.66
2023-01-13T19:05:57.022Z,68.81
2023-01-13T19:08:23.314Z,68.30
2023-01-13T19:10:49.643Z,68.72
2023-01-13T19:13:15.947Z,68.74
2023-01-13T19:15:42.325Z,68.09
2023-01-13T19:18:08.661Z,68.79
2023-01-13T19:20:34.967Z,67.31
2023-01-13T19:23:01.271Z,68.13
2023-01-13T19:25:27.593Z,66.68
2023-01-13T19:27:53.881Z,66.28
2023-01-13T19:30:20.193Z,67.00
2023-01-13T19:32:46.531Z,66.09
2023-01-13T19:35:12.818Z,65.62
2023-01-13T19:37:39.097Z,66.12
2023-01-13T19:40:05.395Z,65.88
2023-01-13T19:42:31.702Z,64.94
2023-01-13T19:44:58.007Z,66.36
2023-01-13T19:47:24.323Z,66.51
2023-01-13T19:49:50.601Z,65.80
2023-01-13T19:52:16.896Z,65.49
2023-01-13T19:54:43.207Z,64.96
2023-01-13T19:57:09.522Z,65.25
2023-01-13T19:59:35.830Z,64.16
2023-01-13T20:02:02.253Z,64.17
2023-01-13T20:04:28.611Z,64.54
2023-01-13T20:06:54.909Z,64.81
2023-01-13T20:09:21.248Z,64.65
2023-01-13T20:11:47.551Z,64.69
2023-01-13T20:14:13.842Z,64.76
2023-01-13T20:16:40.148Z,65.02
2023-01-13T20:19:06.443Z,64.03
2023-01-13T20:21:32.738Z,64.40
2023-01-13T20:23:59.048Z,64.27
2023-01-13T20:26:25.337Z,62.68
2023-01-13T20:28:51.619Z,63.38
2023-01-13T20:31:17.961Z,63.57
2023-01-13T20:33:44.292Z,63.25
2023-01-13T20:36:10.593Z,63.79
2023-01-13T20:38:36.909Z,64.03
2023-01-13T20:41:03.208Z,63.74
2023-01-13T20:43:29.501Z,63.64
2023-01-13T20:45:55.813Z,64.11
2023-01-13T20:48:22.104Z,64.30
2023-01-13T20:50:48.427Z,63.77
2023-01-13T20:53:14.741Z,64.14
2023-01-13T20:55:41.045Z,64.36
2023-01-13T20:58:07.345Z,64.46
2023-01-13T21:00:33.689Z,64.35
2023-01-13T21:02:59.990Z,63.28
2023-01-13T21:05:26.292Z,63.54
2023-01-13T21:07:52.635Z,63.51
2023-01-13T21:10:18.923Z,63.60
2023-01-13T21:12:45.209Z,64.89
2023-01-13T21:15:11.542Z,64.27
2023-01-13T21:17:37.840Z,63.14
2023-01-13T21:20:04.649Z,63.57
2023-01-13T21:22:31.081Z,62.10
2023-01-13T21:24:57.486Z,62.53
2023-01-13T21:27:23.775Z,62.50
2023-01-13T21:29:50.081Z,63.19
2023-01-13T21:32:16.355Z,64.46
2023-01-13T21:34:42.635Z,63.24
2023-01-13T21:37:08.967Z,63.31
2023-01-13T21:39:35.259Z,63.61
2023-01-13T21:42:01.536Z,64.17
2023-01-13T21:44:27.878Z,64.94
2023-01-13T21:46:54.171Z,64.78
2023-01-13T21:49:20.459Z,64.47
2023-01-13T21:51:46.777Z,65.58
2023-01-13T21:54:13.078Z,66.12
2023-01-13T21:56:39.371Z,66.81
2023-01-13T21:59:07.637Z,66.15
2023-01-13T22:01:33.971Z,65.88
2023-01-13T22:04:00.289Z,66.90
2023-01-13T22:06:26.625Z,66.51
2023-01-13T22:08:52.943Z,66.15
2023-01-13T22:11:19.241Z,67.08
2023-01-13T22:13:47.134Z,66.66
2023-01-13T22:16:14.165Z,67.94
2023-01-13T22:18:40.487Z,68.17
2023-01-13T22:21:06.822Z,69.50
2023-01-13T22:23:33.126Z,69.91
2023-01-13T22:25:59.423Z,70.79
2023-01-13T22:28:25.729Z,70.89
2023-01-13T22:30:52.020Z,71.96
2023-01-13T22:33:18.314Z,72.54
2023-01-13T22:35:44.624Z,72.23
2023-01-13T22:38:10.909Z,73.39
2023-01-13T22:40:37.198Z,73.36
2023-01-13T22:43:03.513Z,72.80
2023-01-13T22:45:29.806Z,72.55
2023-01-13T22:47:56.106Z,72.09
2023-01-13T22:50:22.414Z,71.68
2023-01-13T22:52:48.692Z,72.95
2023-01-13T22:55:14.979Z,71.10
2023-01-13T22:57:47.730Z,70.26
2023-01-13T23:00:14.714Z,69.66
2023-01-13T23:02:41.019Z,70.05
2023-01-13T23:05:07.317Z,70.67
2023-01-13T23:07:33.619Z,70.17
2023-01-13T23:09:59.944Z,70.68
2023-01-13T23:12:26.243Z,69.60
2023-01-13T23:14:52.557Z,69.85
2023-01-13T23:17:18.932Z,71.04
2023-01-13T23:19:45.225Z,71.11
2023-01-13T23:22:11.527Z,71.39
2023-01-13T23:24:37.851Z,70.71
2023-01-13T23:27:04.162Z,71.15
2023-01-13T23:29:30.470Z,71.26
2023-01-13T23:31:56.780Z,72.08
2023-01-13T23:34:23.074Z,72.75
2023-01-13T23:36:49.402Z,73.13
2023-01-13T23:39:15.720Z,73.22
2023-01-13T23:41:42.016Z,74.19
2023-01-13T23:44:08.313Z,72.71
2023-01-13T23:46:34.624Z,72.35
2023-01-13T23:49:00.931Z,71.35
2023-01-13T23:51:27.241Z,69.38
2023-01-13T23:53:53.565Z,66.93
2023-01-13T23:56:19.871Z,67.75
2023-01-13T23:58:46.171Z,66.66
